Time;durP1;ratioP1;P1;durP2;ratioP2;P2;SDS_P1;SDS_P2;PMS_P1;PMS_P2;Temp;Humidity;BMP_temperature;BMP_pressure;BME280_temperature;BME280_humidity;BME280_pressure;Samples;Min_cycle;Max_cycle;Signal;HPM_P1;HPM_P2
2022/02/07 00:01:05;;;;;;;15.50;1.65;;;3.30;99.90;;;;;;5007977;28;20045;-71
2022/02/07 00:03:42;;;;;;;8.98;1.77;;;3.40;99.90;;;;;;5008088;28;20056;-71
2022/02/07 00:06:08;;;;;;;11.10;1.98;;;3.30;99.90;;;;;;5008206;28;20105;-71
2022/02/07 00:08:35;;;;;;;7.90;2.22;;;3.30;99.90;;;;;;5024746;28;20042;-71
2022/02/07 00:11:01;;;;;;;13.02;1.90;;;3.30;99.90;;;;;;5010252;28;20065;-71
2022/02/07 00:13:28;;;;;;;10.25;1.60;;;3.40;99.90;;;;;;5025405;28;20049;-71
2022/02/07 00:15:54;;;;;;;12.50;1.90;;;3.40;99.90;;;;;;5025176;28;20513;-71
2022/02/07 00:18:22;;;;;;;12.82;2.17;;;3.20;99.90;;;;;;5008246;28;20042;-71
2022/02/07 00:20:47;;;;;;;15.07;2.55;;;3.20;99.90;;;;;;5019006;28;20113;-71
2022/02/07 00:23:13;;;;;;;13.82;2.72;;;3.30;99.90;;;;;;5007791;28;20509;-71
2022/02/07 00:25:39;;;;;;;15.05;1.98;;;3.40;99.90;;;;;;5007626;28;20056;-71
2022/02/07 00:28:04;;;;;;;16.50;3.15;;;3.50;99.90;;;;;;5008925;28;20056;-71
2022/02/07 00:30:30;;;;;;;15.52;2.17;;;3.50;99.90;;;;;;5011075;28;20124;-71
2022/02/07 00:32:56;;;;;;;14.38;2.05;;;3.50;99.90;;;;;;5024870;28;20046;-71
2022/02/07 00:35:23;;;;;;;14.45;2.60;;;3.50;99.90;;;;;;5007355;28;20041;-71
2022/02/07 00:37:52;;;;;;;11.50;2.47;;;3.60;99.90;;;;;;5009163;28;20076;-71
2022/02/07 00:46:12;;;;;;;12.55;1.67;;;3.60;99.90;;;;;;5024721;28;20141;-71
2022/02/07 00:48:11;;;;;;;13.15;2.45;;;3.70;99.90;;;;;;5017465;28;20057;-71
2022/02/07 00:50:38;;;;;;;15.93;2.80;;;3.70;99.90;;;;;;5024282;28;20042;-71
2022/02/07 00:53:05;;;;;;;12.70;2.30;;;3.80;99.90;;;;;;5010325;28;20050;-71
2022/02/07 00:55:32;;;;;;;11.85;2.65;;;3.80;99.90;;;;;;5008029;28;20516;-71
2022/02/07 00:57:58;;;;;;;13.30;2.33;;;3.80;99.90;;;;;;5007720;28;20046;-71
2022/02/07 01:00:24;;;;;;;14.73;2.60;;;3.80;99.90;;;;;;4990774;28;20046;-71
2022/02/07 01:02:50;;;;;;;14.13;2.22;;;3.80;99.90;;;;;;5028914;28;20057;-70
2022/02/07 01:05:16;;;;;;;14.38;2.67;;;3.70;99.90;;;;;;5010421;28;20046;-70
2022/02/07 01:07:45;;;;;;;23.48;4.20;;;3.70;99.90;;;;;;5028303;28;20042;-71
2022/02/07 01:10:13;;;;;;;17.63;2.28;;;3.80;99.90;;;;;;5014847;28;20106;-70
2022/02/07 01:12:57;;;;;;;14.38;3.10;;;3.70;99.90;;;;;;5011353;28;20142;-70
2022/02/07 01:15:43;;;;;;;16.38;3.15;;;3.70;99.90;;;;;;5014506;28;20085;-70
2022/02/07 01:46:01;;;;;;;20.73;2.75;;;3.70;99.90;;;;;;5011431;28;20061;-71
2022/02/07 01:55:41;;;;;;;11.10;2.20;;;4.20;99.90;;;;;;5027321;28;20113;-71
2022/02/07 01:58:08;;;;;;;16.50;2.78;;;4.30;99.90;;;;;;5021316;28;20111;-71
2022/02/07 02:00:36;;;;;;;10.45;2.17;;;4.40;99.90;;;;;;5009757;28;20046;-71
2022/02/07 02:03:03;;;;;;;16.13;1.95;;;4.50;99.90;;;;;;5013052;28;20052;-71
2022/02/07 02:05:36;;;;;;;11.13;2.67;;;4.50;99.90;;;;;;5009700;28;20057;-71
2022/02/07 02:08:20;;;;;;;17.02;2.72;;;4.40;99.90;;;;;;5027758;28;20061;-71
2022/02/07 02:10:50;;;;;;;18.13;3.38;;;4.50;99.90;;;;;;5009552;28;20054;-71
2022/02/07 02:13:24;;;;;;;15.23;2.78;;;4.40;99.90;;;;;;5027583;28;20421;-71
2022/02/07 02:16:08;;;;;;;14.70;3.22;;;4.50;99.90;;;;;;5010097;28;20054;-71
2022/02/07 02:37:43;;;;;;;12.57;3.00;;;4.70;99.90;;;;;;5008650;28;20054;-74
2022/02/07 02:45:35;;;;;;;13.10;3.17;;;4.50;99.90;;;;;;5008948;28;20056;-68
2022/02/07 02:48:06;;;;;;;15.90;2.92;;;4.60;99.90;;;;;;5008214;28;20068;-68
2022/02/07 02:50:35;;;;;;;19.83;3.22;;;4.60;99.90;;;;;;5026626;28;20038;-68
2022/02/07 02:53:12;;;;;;;15.85;2.67;;;4.60;99.90;;;;;;5008354;28;20052;-68
2022/02/07 02:55:43;;;;;;;17.65;2.63;;;4.60;99.90;;;;;;5007871;28;20053;-68
2022/02/07 02:58:13;;;;;;;18.52;3.03;;;4.60;99.90;;;;;;5008434;28;20125;-68
2022/02/07 03:00:41;;;;;;;21.08;3.67;;;4.70;99.90;;;;;;5008463;28;20088;-68
2022/02/07 03:03:07;;;;;;;17.38;3.20;;;4.70;99.90;;;;;;5008683;28;20046;-68
2022/02/07 03:05:33;;;;;;;9.70;2.00;;;4.60;99.90;;;;;;5004668;28;20033;-68
2022/02/07 03:07:59;;;;;;;15.32;3.25;;;4.70;99.90;;;;;;5008756;28;20050;-68
2022/02/07 03:10:29;;;;;;;13.70;1.95;;;4.60;99.90;;;;;;5007837;28;20069;-68
2022/02/07 03:18:22;;;;;;;12.38;2.92;;;4.70;99.90;;;;;;5024887;28;20046;-68
2022/02/07 03:20:48;;;;;;;22.42;3.40;;;4.70;99.90;;;;;;5025785;28;20042;-68
2022/02/07 03:23:14;;;;;;;15.73;3.10;;;4.70;99.90;;;;;;5008116;28;20038;-68
2022/02/07 03:25:40;;;;;;;17.50;2.88;;;4.60;99.90;;;;;;5025762;28;20037;-69
2022/02/07 03:28:06;;;;;;;20.60;4.20;;;4.70;99.90;;;;;;5010010;28;20092;-68
2022/02/07 03:30:33;;;;;;;19.85;3.42;;;4.70;99.90;;;;;;5008725;28;20091;-68
2022/02/07 03:33:00;;;;;;;15.57;3.92;;;4.70;99.90;;;;;;5025965;28;20049;-68
2022/02/07 03:35:26;;;;;;;18.25;3.03;;;4.60;99.90;;;;;;5009787;28;20050;-68
2022/02/07 03:37:52;;;;;;;19.88;3.75;;;4.60;99.90;;;;;;5012246;28;20034;-68
2022/02/07 03:40:18;;;;;;;11.55;3.40;;;4.60;99.90;;;;;;5025832;28;20107;-68
2022/02/07 03:42:43;;;;;;;21.95;4.72;;;4.60;99.90;;;;;;5024616;28;20110;-68
2022/02/07 03:45:10;;;;;;;20.83;3.22;;;4.70;99.90;;;;;;5011162;28;20072;-68
2022/02/07 03:47:35;;;;;;;21.77;3.30;;;4.70;99.90;;;;;;5011023;28;20050;-68
2022/02/07 03:50:02;;;;;;;27.75;4.47;;;4.80;99.90;;;;;;5011466;28;20486;-68
2022/02/07 03:52:28;;;;;;;15.45;2.92;;;4.70;99.90;;;;;;5025533;28;20110;-68
2022/02/07 03:54:53;;;;;;;19.27;3.53;;;4.70;99.90;;;;;;5012039;28;20446;-68
2022/02/07 03:57:19;;;;;;;19.42;3.30;;;4.70;99.90;;;;;;5010437;28;20058;-68
2022/02/07 03:59:45;;;;;;;15.40;3.67;;;4.60;99.90;;;;;;5007439;28;20072;-68
2022/02/07 04:02:11;;;;;;;11.50;2.58;;;4.50;99.90;;;;;;4990017;28;20042;-68
2022/02/07 04:04:38;;;;;;;17.40;2.53;;;4.50;99.90;;;;;;5008006;28;20101;-68
2022/02/07 04:07:06;;;;;;;19.90;2.67;;;4.60;99.90;;;;;;5010053;28;20050;-68
2022/02/07 04:09:37;;;;;;;15.15;2.30;;;4.70;99.90;;;;;;5007862;28;20058;-68
2022/02/07 04:12:09;;;;;;;17.17;2.45;;;4.60;99.90;;;;;;5025465;28;20050;-68
2022/02/07 04:14:35;;;;;;;18.70;3.50;;;4.60;99.90;;;;;;5007467;28;20057;-68
2022/02/07 04:17:01;;;;;;;27.80;3.65;;;4.50;99.90;;;;;;5005352;28;20054;-68
2022/02/07 04:19:33;;;;;;;16.65;2.60;;;4.50;99.90;;;;;;5024995;28;20074;-68
2022/02/07 04:21:59;;;;;;;19.65;2.45;;;4.50;99.90;;;;;;5007738;28;20050;-68
2022/02/07 04:24:25;;;;;;;18.80;2.63;;;4.40;99.90;;;;;;5009037;28;20124;-68
2022/02/07 04:26:51;;;;;;;19.58;2.58;;;4.40;99.90;;;;;;5007507;28;20100;-68
2022/02/07 04:29:17;;;;;;;17.13;2.72;;;4.50;99.90;;;;;;5008507;28;20046;-68
2022/02/07 04:31:42;;;;;;;20.60;3.25;;;4.50;99.90;;;;;;5024857;28;20169;-68
2022/02/07 04:34:08;;;;;;;21.60;3.75;;;4.40;99.90;;;;;;5012358;28;20050;-68
2022/02/07 04:36:34;;;;;;;25.05;4.60;;;4.50;99.90;;;;;;5027038;28;20069;-68
2022/02/07 04:39:00;;;;;;;25.23;4.13;;;4.40;99.90;;;;;;5016789;28;20165;-68
2022/02/07 04:41:26;;;;;;;23.20;3.35;;;4.50;99.90;;;;;;5029221;28;20046;-68
2022/02/07 04:44:02;;;;;;;22.92;4.05;;;4.40;99.90;;;;;;5028700;28;20046;-69
2022/02/07 04:49:29;;;;;;;24.17;3.85;;;4.60;99.90;;;;;;5011085;28;20064;-69
2022/02/07 04:52:07;;;;;;;24.75;4.15;;;4.60;99.90;;;;;;5014754;28;20081;-68
2022/02/07 04:55:30;;;;;;;20.48;3.35;;;4.90;99.90;;;;;;5011473;28;20077;-68
2022/02/07 05:02:53;;;;;;;14.27;2.63;;;5.20;99.90;;;;;;5015359;28;20046;-68
2022/02/07 05:15:47;;;;;;;13.13;1.80;;;4.90;99.90;;;;;;5013262;28;20064;-68
2022/02/07 05:18:13;;;;;;;7.60;1.67;;;4.90;99.90;;;;;;5010555;28;20041;-68
2022/02/07 05:20:39;;;;;;;15.95;3.08;;;4.90;99.90;;;;;;5010381;28;20057;-68
2022/02/07 05:23:05;;;;;;;13.93;2.63;;;4.70;99.90;;;;;;5011143;28;20113;-68
2022/02/07 05:25:30;;;;;;;20.00;2.75;;;4.40;99.90;;;;;;5011048;28;20476;-68
2022/02/07 05:27:56;;;;;;;15.40;3.00;;;4.50;99.90;;;;;;5027890;28;20049;-68
2022/02/07 05:30:22;;;;;;;20.88;3.85;;;4.50;99.90;;;;;;5028469;28;20112;-69
2022/02/07 05:32:48;;;;;;;19.80;2.92;;;4.50;99.90;;;;;;5011684;28;20046;-69
2022/02/07 05:35:13;;;;;;;23.55;4.18;;;4.50;99.90;;;;;;5009796;28;20057;-68
2022/02/07 05:37:39;;;;;;;23.23;3.63;;;4.50;99.90;;;;;;5010033;28;20053;-69
2022/02/07 05:40:11;;;;;;;25.90;4.22;;;4.40;99.90;;;;;;4981397;28;20233;-73
2022/02/07 05:42:38;;;;;;;21.33;3.13;;;4.40;99.90;;;;;;5027658;28;20084;-73
2022/02/07 05:45:07;;;;;;;22.80;4.25;;;4.40;99.90;;;;;;5008888;28;20038;-73
2022/02/07 05:47:34;;;;;;;18.92;3.65;;;4.60;99.90;;;;;;5012650;28;20045;-72
2022/02/07 05:50:00;;;;;;;30.63;5.57;;;4.60;99.90;;;;;;4984956;28;20062;-70
2022/02/07 05:52:26;;;;;;;21.05;3.53;;;4.70;99.90;;;;;;4982062;28;20076;-70
2022/02/07 05:54:52;;;;;;;20.83;3.83;;;4.70;99.90;;;;;;5010681;28;20753;-71
2022/02/07 05:57:17;;;;;;;25.83;4.63;;;4.90;99.90;;;;;;5001270;28;20050;-71
2022/02/07 05:59:43;;;;;;;15.38;2.80;;;4.90;99.90;;;;;;4994961;28;20040;-70
2022/02/07 06:02:09;;;;;;;29.05;3.60;;;4.90;99.90;;;;;;4992043;28;20034;-73
2022/02/07 06:04:34;;;;;;;18.48;3.53;;;4.80;99.90;;;;;;4990719;28;20057;-71
2022/02/07 06:07:00;;;;;;;17.80;2.70;;;4.80;99.90;;;;;;4994922;28;20045;-71
2022/02/07 06:09:26;;;;;;;12.18;2.38;;;4.80;99.90;;;;;;5003347;28;20045;-70
2022/02/07 06:11:52;;;;;;;16.98;2.85;;;4.90;99.90;;;;;;5001865;28;20057;-70
2022/02/07 06:14:17;;;;;;;17.08;2.55;;;4.90;99.90;;;;;;4987398;28;20114;-70
2022/02/07 06:16:43;;;;;;;16.10;1.92;;;5.10;99.90;;;;;;5017976;28;20042;-69
2022/02/07 06:19:09;;;;;;;14.65;3.20;;;5.00;99.90;;;;;;4988026;28;20330;-69
2022/02/07 06:21:35;;;;;;;13.70;2.95;;;4.90;99.90;;;;;;5000369;28;20033;-68
2022/02/07 06:24:02;;;;;;;15.80;2.33;;;4.90;99.90;;;;;;4992310;28;20061;-68
2022/02/07 06:26:31;;;;;;;23.85;4.38;;;4.70;99.90;;;;;;5018203;28;20045;-68
2022/02/07 06:28:57;;;;;;;15.55;3.58;;;4.70;99.90;;;;;;4990925;28;20050;-68
2022/02/07 06:31:24;;;;;;;16.13;3.00;;;4.70;99.90;;;;;;5002477;28;20042;-68
2022/02/07 06:33:50;;;;;;;20.92;4.18;;;4.70;99.90;;;;;;5009130;28;20386;-67
2022/02/07 06:36:16;;;;;;;17.73;4.07;;;4.50;99.90;;;;;;5017713;28;20510;-68
2022/02/07 06:38:42;;;;;;;16.88;2.78;;;4.50;99.90;;;;;;5008618;28;20144;-67
2022/02/07 06:41:07;;;;;;;15.70;2.33;;;4.40;99.90;;;;;;5001260;28;20572;-68
2022/02/07 06:43:33;;;;;;;15.68;2.42;;;4.40;99.90;;;;;;4991413;28;20141;-68
2022/02/07 06:45:59;;;;;;;19.63;2.63;;;4.30;99.90;;;;;;5001976;28;20565;-68
2022/02/07 06:48:28;;;;;;;19.83;4.18;;;4.30;99.90;;;;;;5010170;28;20421;-67
2022/02/07 06:50:54;;;;;;;22.45;3.35;;;4.20;99.90;;;;;;5000856;28;20115;-68
2022/02/07 06:53:19;;;;;;;15.80;3.53;;;4.10;99.90;;;;;;5009380;28;20157;-68
2022/02/07 06:55:46;;;;;;;17.52;2.72;;;3.90;99.90;;;;;;5003804;28;20064;-68
2022/02/07 06:58:11;;;;;;;14.95;2.30;;;3.90;99.90;;;;;;4992567;28;20089;-68
2022/02/07 07:00:37;;;;;;;15.27;2.10;;;3.90;99.90;;;;;;5001029;28;20438;-69
2022/02/07 07:03:03;;;;;;;17.83;2.15;;;3.70;99.90;;;;;;4990113;28;20061;-69
2022/02/07 07:05:29;;;;;;;17.63;2.97;;;3.70;99.90;;;;;;4997747;28;20049;-70
2022/02/07 07:07:55;;;;;;;19.70;2.83;;;3.60;99.90;;;;;;4992237;28;20054;-69
2022/02/07 07:10:21;;;;;;;18.15;3.83;;;3.70;99.90;;;;;;5017651;28;20317;-69
2022/02/07 07:12:50;;;;;;;26.17;3.72;;;3.60;99.90;;;;;;5008813;28;20065;-69
2022/02/07 07:15:30;;;;;;;19.23;2.40;;;3.70;99.90;;;;;;5002336;28;20069;-69
2022/02/07 07:17:56;;;;;;;16.98;2.78;;;3.70;99.90;;;;;;4989799;28;20073;-69
2022/02/07 07:20:21;;;;;;;15.20;2.78;;;3.70;99.90;;;;;;4984834;28;20033;-69
2022/02/07 07:22:47;;;;;;;19.17;2.83;;;3.70;99.90;;;;;;4991659;28;20042;-69
2022/02/07 07:25:17;;;;;;;21.42;2.63;;;3.70;99.90;;;;;;5018941;28;20425;-69
2022/02/07 07:30:49;;;;;;;24.52;3.25;;;3.60;99.90;;;;;;4951743;28;20069;-66
2022/02/07 07:33:20;;;;;;;20.15;2.92;;;3.50;99.90;;;;;;4952755;28;20055;-66
2022/02/07 07:35:45;;;;;;;;;;;3.60;99.90;;;;;;4977808;28;20035;-66
2022/02/07 07:38:11;;;;;;;32.05;3.88;;;3.70;99.90;;;;;;4967675;28;19954;-66
2022/02/07 07:40:37;;;;;;;18.13;2.50;;;3.60;99.90;;;;;;4936717;28;20105;-65
2022/02/07 07:43:06;;;;;;;24.90;4.53;;;3.70;99.90;;;;;;4950410;28;20118;-65
2022/02/07 07:45:34;;;;;;;16.52;3.08;;;3.60;99.90;;;;;;4958501;28;20050;-65
2022/02/07 07:48:04;;;;;;;21.88;2.78;;;3.70;99.90;;;;;;4967474;28;20054;-65
2022/02/07 07:50:52;;;;;;;17.10;3.15;;;3.80;99.90;;;;;;4958547;28;20065;-65
2022/02/07 07:53:27;;;;;;;21.38;3.00;;;3.80;99.90;;;;;;4967315;28;20455;-65
2022/02/07 08:01:50;;;;;;;16.65;2.88;;;4.10;99.90;;;;;;4974725;28;20050;-64
2022/02/07 08:04:18;;;;;;;20.23;3.50;;;4.10;99.90;;;;;;4945700;28;20058;-65
2022/02/07 08:06:55;;;;;;;20.58;4.63;;;4.20;99.90;;;;;;4985073;28;20366;-65
2022/02/07 08:12:03;;;;;;;18.98;2.95;;;4.20;99.90;;;;;;5017984;28;20084;-65
2022/02/07 08:14:34;;;;;;;;;;;4.20;99.90;;;;;;5007899;28;20094;-65
2022/02/07 08:17:00;;;;;;;25.40;4.60;;;4.20;99.90;;;;;;5018308;28;20439;-64
2022/02/07 08:19:27;;;;;;;24.75;3.60;;;4.40;99.90;;;;;;4989124;28;20053;-65
2022/02/07 08:21:54;;;;;;;25.55;4.03;;;4.50;99.90;;;;;;5015992;28;20048;-65
2022/02/07 08:24:20;;;;;;;24.15;4.03;;;4.40;99.90;;;;;;5007984;28;20081;-65
2022/02/07 08:26:47;;;;;;;18.70;4.30;;;4.40;99.90;;;;;;5000651;28;20046;-65
2022/02/07 08:29:13;;;;;;;24.38;3.85;;;4.50;99.90;;;;;;4990774;28;20157;-65
2022/02/07 08:31:38;;;;;;;27.67;5.38;;;4.50;99.90;;;;;;5000462;28;20078;-65
2022/02/07 08:34:04;;;;;;;20.38;4.10;;;4.70;99.90;;;;;;4990825;28;20053;-65
2022/02/07 08:36:29;;;;;;;26.25;3.55;;;4.70;99.90;;;;;;5017763;28;20595;-65
2022/02/07 08:38:55;;;;;;;22.40;3.95;;;4.80;99.90;;;;;;4989841;28;20156;-65
2022/02/07 08:41:21;;;;;;;31.38;5.07;;;4.80;99.90;;;;;;4991252;28;20056;-66
2022/02/07 08:43:47;;;;;;;25.95;4.57;;;4.80;99.90;;;;;;5007895;28;20042;-65
2022/02/07 08:46:12;;;;;;;23.98;3.85;;;5.00;99.90;;;;;;5016687;28;20061;-65
2022/02/07 08:48:38;;;;;;;25.20;4.30;;;5.00;99.90;;;;;;5006705;28;20049;-64
2022/02/07 08:51:06;;;;;;;25.73;5.55;;;5.00;99.90;;;;;;5016781;28;20038;-65
2022/02/07 08:53:38;;;;;;;29.60;4.50;;;5.10;99.90;;;;;;5007622;28;20058;-65
2022/02/07 08:56:05;;;;;;;26.65;5.38;;;5.10;99.90;;;;;;5004109;28;20056;-65
2022/02/07 08:58:33;;;;;;;37.28;6.03;;;5.20;99.90;;;;;;5006465;28;20064;-65
2022/02/07 09:11:11;;;;;;;28.35;4.65;;;5.50;99.90;;;;;;5002974;28;20093;-65
2022/02/07 09:13:39;;;;;;;30.00;4.93;;;5.50;99.90;;;;;;4988200;28;20649;-64
2022/02/07 09:18:37;;;;;;;24.43;4.17;;;5.70;99.90;;;;;;4990447;28;20448;-64
2022/02/07 09:21:06;;;;;;;28.95;4.88;;;5.70;99.90;;;;;;4996659;28;20043;-64
2022/02/07 09:23:35;;;;;;;28.50;5.63;;;5.90;99.90;;;;;;4992754;28;20070;-65
2022/02/07 09:26:02;;;;;;;28.75;5.60;;;6.00;99.90;;;;;;5010629;28;20106;-65
2022/02/07 09:28:28;;;;;;;44.83;6.35;;;6.00;99.90;;;;;;4992858;28;20088;-65
2022/02/07 09:30:54;;;;;;;26.77;5.05;;;6.00;99.90;;;;;;5011967;28;20054;-65
2022/02/07 09:33:21;;;;;;;27.50;4.13;;;6.10;99.90;;;;;;4994256;28;20054;-65
2022/02/07 09:35:52;;;;;;;30.08;5.15;;;6.20;99.90;;;;;;5014102;28;20046;-64
2022/02/07 09:38:19;;;;;;;23.83;4.45;;;6.30;99.90;;;;;;4994413;28;20085;-64
2022/02/07 09:40:53;;;;;;;23.27;4.43;;;6.40;99.90;;;;;;4992018;28;20057;-65
2022/02/07 09:43:20;;;;;;;35.90;4.90;;;6.40;99.90;;;;;;4990824;28;20445;-65
2022/02/07 09:45:49;;;;;;;32.42;5.65;;;6.50;99.90;;;;;;5013194;28;20077;-65
2022/02/07 09:48:16;;;;;;;30.52;5.45;;;6.60;99.90;;;;;;4994197;28;20201;-65
2022/02/07 09:50:43;;;;;;;21.92;5.18;;;6.70;99.90;;;;;;5010987;28;20050;-65
2022/02/07 09:53:09;;;;;;;28.50;5.03;;;6.70;99.90;;;;;;4990388;28;20050;-65
2022/02/07 09:55:35;;;;;;;29.02;4.70;;;6.80;99.90;;;;;;5002870;28;20054;-65
2022/02/07 09:58:01;;;;;;;24.30;4.60;;;6.80;99.90;;;;;;4990249;28;20461;-65
2022/02/07 10:00:34;;;;;;;28.13;5.00;;;6.80;99.90;;;;;;5011153;28;20038;-64
2022/02/07 10:03:14;;;;;;;28.27;4.57;;;6.80;99.90;;;;;;4990949;28;20114;-64
2022/02/07 10:05:55;;;;;;;24.42;5.28;;;6.70;99.90;;;;;;5016302;28;20089;-64
2022/02/07 10:19:04;;;;;;;26.17;4.43;;;7.00;99.90;;;;;;4993052;28;20053;-64
2022/02/07 10:37:56;;;;;;;26.25;3.97;;;7.20;99.90;;;;;;5000827;28;20051;-64
2022/02/07 10:46:03;;;;;;;20.42;3.90;;;7.20;99.90;;;;;;4989169;28;20110;-65
2022/02/07 10:48:41;;;;;;;24.25;4.65;;;7.30;99.90;;;;;;4988529;28;20605;-64
2022/02/07 10:51:25;;;;;;;25.98;4.80;;;7.30;99.90;;;;;;5007535;28;20561;-65
2022/02/07 10:53:57;;;;;;;22.27;3.47;;;7.40;99.90;;;;;;4990927;28;20070;-65
2022/02/07 10:56:35;;;;;;;25.98;4.97;;;7.50;99.90;;;;;;5010994;28;20047;-65
2022/02/07 10:59:05;;;;;;;20.55;3.88;;;7.50;99.90;;;;;;4990384;28;20054;-64
2022/02/07 11:04:32;;;;;;;18.65;3.78;;;7.50;99.90;;;;;;4989480;28;20091;-64
2022/02/07 11:07:01;;;;;;;30.00;5.35;;;7.40;99.90;;;;;;4997430;28;20271;-64
2022/02/07 11:12:39;;;;;;;27.40;5.28;;;7.50;99.90;;;;;;5000427;28;20065;-65
2022/02/07 11:15:30;;;;;;;26.25;4.03;;;7.50;99.90;;;;;;4996932;28;20069;-65
2022/02/07 11:18:08;;;;;;;20.50;4.13;;;7.40;99.90;;;;;;4996587;28;20083;-64
2022/02/07 11:23:25;;;;;;;15.90;3.20;;;7.50;99.90;;;;;;4998919;28;20043;-65
2022/02/07 11:26:14;;;;;;;28.65;4.05;;;7.80;99.90;;;;;;4988552;28;20063;-64
2022/02/07 11:28:43;;;;;;;21.98;4.00;;;7.80;99.90;;;;;;5005456;28;20101;-65
2022/02/07 11:31:09;;;;;;;15.70;4.22;;;7.90;99.90;;;;;;5004745;28;20137;-64
2022/02/07 11:33:49;;;;;;;22.88;3.72;;;7.90;99.90;;;;;;4988068;28;20058;-64
2022/02/07 11:36:23;;;;;;;27.65;3.85;;;7.80;99.90;;;;;;5005870;28;20049;-64
2022/02/07 11:39:04;;;;;;;20.55;3.55;;;7.70;99.90;;;;;;4990414;28;20054;-64
2022/02/07 11:41:56;;;;;;;23.55;4.32;;;7.80;99.90;;;;;;4986428;28;20104;-64
2022/02/07 11:44:48;;;;;;;19.42;4.10;;;7.90;99.90;;;;;;4994898;28;20368;-67
2022/02/07 11:47:32;;;;;;;18.92;3.63;;;7.80;99.90;;;;;;4980256;28;20054;-67
2022/02/07 11:50:02;;;;;;;17.98;3.60;;;7.90;99.90;;;;;;5000219;28;20098;-67
2022/02/07 11:52:45;;;;;;;20.48;3.70;;;8.00;99.90;;;;;;4997050;28;20046;-68
2022/02/07 11:55:19;;;;;;;19.85;3.35;;;8.20;99.90;;;;;;4995422;28;20156;-67
2022/02/07 11:57:54;;;;;;;21.42;4.22;;;8.30;99.90;;;;;;4997562;28;20038;-67
2022/02/07 12:00:24;;;;;;;18.73;4.25;;;8.20;99.90;;;;;;5001547;28;20053;-67
2022/02/07 12:02:51;;;;;;;20.40;3.97;;;8.10;99.90;;;;;;4994967;28;20048;-67
2022/02/07 12:05:19;;;;;;;18.92;3.80;;;8.00;99.90;;;;;;5003634;28;20109;-67
2022/02/07 12:08:21;;;;;;;21.95;4.53;;;7.90;99.90;;;;;;4999454;28;20053;-67
2022/02/07 12:11:08;;;;;;;19.05;3.55;;;7.90;99.90;;;;;;4940768;29;20043;-67
2022/02/07 12:13:43;;;;;;;15.95;3.15;;;7.70;99.90;;;;;;4928218;29;20140;-67
2022/02/07 12:16:17;;;;;;;19.00;4.25;;;7.70;99.90;;;;;;4932760;29;20143;-67
2022/02/07 12:18:58;;;;;;;19.05;3.30;;;7.90;99.90;;;;;;4946556;28;20047;-68
2022/02/07 12:21:26;;;;;;;18.35;4.03;;;8.00;99.90;;;;;;4937319;29;20055;-68
2022/02/07 12:23:56;;;;;;;17.30;3.67;;;8.20;99.90;;;;;;4944540;28;20094;-67
2022/02/07 12:26:24;;;;;;;15.68;3.15;;;8.30;99.90;;;;;;4934093;29;20063;-68
2022/02/07 12:28:57;;;;;;;15.73;2.72;;;8.50;99.90;;;;;;4944360;28;20091;-67
2022/02/07 12:31:24;;;;;;;14.05;2.78;;;8.30;99.90;;;;;;4955219;29;20043;-68
2022/02/07 12:34:06;;;;;;;16.98;3.28;;;8.00;99.90;;;;;;4944707;29;20597;-68
2022/02/07 12:36:34;;;;;;;18.15;3.65;;;8.10;99.90;;;;;;4938897;29;20043;-68
2022/02/07 12:39:03;;;;;;;19.60;3.03;;;8.10;99.90;;;;;;4929550;28;20062;-67
2022/02/07 12:41:31;;;;;;;15.13;3.17;;;7.80;99.90;;;;;;4922020;29;20486;-67
2022/02/07 12:43:58;;;;;;;16.52;4.03;;;7.60;99.90;;;;;;4947444;29;20152;-68
2022/02/07 12:46:26;;;;;;;15.20;3.13;;;7.50;99.90;;;;;;4968813;28;20134;-67
2022/02/07 12:48:58;;;;;;;16.48;3.30;;;7.40;99.90;;;;;;4994603;28;20079;-67
2022/02/07 12:51:29;;;;;;;17.60;3.53;;;7.40;99.90;;;;;;5008386;28;20058;-67
2022/02/07 12:53:55;;;;;;;15.95;3.15;;;7.30;99.90;;;;;;4987606;28;20478;-67
2022/02/07 12:56:22;;;;;;;17.90;2.88;;;7.30;99.90;;;;;;5011902;28;20046;-67
2022/02/07 12:58:50;;;;;;;16.15;3.10;;;7.20;99.90;;;;;;4988105;28;20038;-66
2022/02/07 13:01:28;;;;;;;20.30;3.90;;;7.10;99.90;;;;;;5015414;28;20145;-65
2022/02/07 13:03:59;;;;;;;15.50;2.83;;;7.10;99.90;;;;;;4994128;28;20100;-65
2022/02/07 13:06:31;;;;;;;16.88;3.30;;;7.00;99.90;;;;;;5014915;28;20140;-66
2022/02/07 13:08:58;;;;;;;18.52;2.85;;;7.00;99.90;;;;;;4993694;28;20533;-65
2022/02/07 13:11:27;;;;;;;19.35;3.33;;;7.10;99.90;;;;;;5011490;28;20054;-65
2022/02/07 13:13:54;;;;;;;17.80;3.10;;;7.20;99.90;;;;;;4990921;28;20046;-65
2022/02/07 13:16:23;;;;;;;16.95;3.47;;;7.60;99.90;;;;;;4997671;28;20081;-66
2022/02/07 13:18:49;;;;;;;14.05;2.72;;;7.80;99.90;;;;;;4989059;28;20057;-66
2022/02/07 13:21:18;;;;;;;11.15;2.22;;;7.90;99.90;;;;;;5013512;28;20057;-66
2022/02/07 13:23:46;;;;;;;13.73;2.75;;;7.90;99.90;;;;;;5001172;28;20050;-65
2022/02/07 13:26:15;;;;;;;14.05;2.65;;;8.00;99.90;;;;;;4987819;28;20141;-66
2022/02/07 13:28:43;;;;;;;19.85;4.35;;;8.20;99.90;;;;;;5014781;28;20714;-66
2022/02/07 13:31:11;;;;;;;14.00;3.25;;;8.40;99.90;;;;;;4987433;28;20061;-66
2022/02/07 13:33:52;;;;;;;12.77;3.15;;;8.60;99.90;;;;;;4999261;28;20042;-65
2022/02/07 13:36:37;;;;;;;19.85;4.05;;;8.60;99.90;;;;;;4987568;28;20050;-66
2022/02/07 13:39:05;;;;;;;11.63;2.47;;;8.70;99.90;;;;;;4990525;28;20055;-66
2022/02/07 13:41:31;;;;;;;13.10;2.70;;;8.90;99.90;;;;;;4994556;28;20046;-66
2022/02/07 13:44:00;;;;;;;14.38;2.83;;;9.20;99.90;;;;;;4989566;28;20073;-66
2022/02/07 13:46:29;;;;;;;9.87;2.13;;;9.20;99.90;;;;;;4997117;28;20069;-66
2022/02/07 13:48:57;;;;;;;20.83;2.53;;;9.20;99.90;;;;;;4989040;28;20324;-66
2022/02/07 13:51:26;;;;;;;14.38;2.58;;;9.00;99.90;;;;;;5011704;28;20134;-66
2022/02/07 13:53:53;;;;;;;14.10;3.70;;;8.90;99.90;;;;;;4989086;28;20069;-66
2022/02/07 13:56:33;;;;;;;12.27;2.20;;;8.80;99.90;;;;;;5013600;28;20046;-66
2022/02/07 13:59:15;;;;;;;14.35;3.45;;;8.50;99.90;;;;;;4987363;28;20373;-66
2022/02/07 14:01:43;;;;;;;14.27;3.33;;;8.50;99.90;;;;;;5010754;28;20046;-66
2022/02/07 14:04:21;;;;;;;27.27;24.80;;;8.30;99.90;;;;;;4993751;28;20050;-66
2022/02/07 14:07:08;;;;;;;14.57;2.30;;;8.10;99.90;;;;;;5011912;28;20042;-66
2022/02/07 14:09:35;;;;;;;14.13;3.50;;;8.30;99.90;;;;;;4993107;28;20073;-65
2022/02/07 14:12:03;;;;;;;14.70;2.78;;;8.30;99.90;;;;;;5008289;28;20215;-66
2022/02/07 14:14:29;;;;;;;12.32;2.92;;;8.20;99.90;;;;;;4996308;28;20057;-66
2022/02/07 14:16:55;;;;;;;11.13;3.00;;;8.40;99.90;;;;;;4996806;28;20131;-66
2022/02/07 14:19:43;;;;;;;13.88;3.72;;;8.50;99.90;;;;;;4991962;28;20046;-66
2022/02/07 14:22:10;;;;;;;16.02;3.13;;;8.40;99.90;;;;;;4999269;28;20097;-65
2022/02/07 14:24:38;;;;;;;11.85;2.95;;;8.10;99.90;;;;;;4995339;28;20049;-66
2022/02/07 14:27:05;;;;;;;12.15;2.60;;;8.00;99.90;;;;;;4998011;28;20306;-65
2022/02/07 14:29:31;;;;;;;13.23;2.40;;;7.80;99.90;;;;;;4990543;28;20525;-65
2022/02/07 14:31:57;;;;;;;15.57;3.67;;;7.60;99.90;;;;;;4998386;28;20046;-65
2022/02/07 14:34:23;;;;;;;10.02;2.15;;;7.40;99.90;;;;;;4991303;28;20060;-66
2022/02/07 14:36:49;;;;;;;16.23;3.28;;;7.50;99.90;;;;;;5010661;28;20046;-66
2022/02/07 14:39:15;;;;;;;10.65;2.35;;;7.40;99.90;;;;;;4990015;28;20050;-65
2022/02/07 14:41:41;;;;;;;11.75;2.80;;;7.40;99.90;;;;;;4978085;28;20042;-65
2022/02/07 14:44:14;;;;;;;11.93;3.05;;;7.30;99.90;;;;;;4987031;28;20047;-66
2022/02/07 14:46:54;;;;;;;18.75;3.08;;;7.30;99.90;;;;;;5010313;28;20046;-65
2022/02/07 14:49:19;;;;;;;11.02;3.72;;;7.20;99.90;;;;;;4987058;28;20525;-65
2022/02/07 14:51:45;;;;;;;14.02;2.45;;;7.20;99.90;;;;;;4996387;28;20039;-66
2022/02/07 14:54:11;;;;;;;17.08;2.45;;;7.10;99.90;;;;;;4986693;28;20077;-65
2022/02/07 14:56:36;;;;;;;13.65;2.80;;;7.10;99.90;;;;;;5001542;28;20042;-65
2022/02/07 14:59:03;;;;;;;18.02;3.50;;;7.00;99.90;;;;;;4997334;28;20057;-65
2022/02/07 15:01:29;;;;;;;17.88;2.40;;;7.00;99.90;;;;;;5002292;28;20110;-65
2022/02/07 15:03:55;;;;;;;17.30;2.90;;;7.00;99.90;;;;;;4996954;28;20295;-65
2022/02/07 15:06:21;;;;;;;14.55;3.20;;;7.00;99.90;;;;;;5002293;28;20488;-65
2022/02/07 15:08:47;;;;;;;14.63;2.90;;;7.00;99.90;;;;;;4997601;28;20050;-65
2022/02/07 15:11:16;;;;;;;12.95;2.40;;;7.00;99.90;;;;;;4990263;28;20056;-66
2022/02/07 15:13:42;;;;;;;12.52;2.40;;;6.90;99.90;;;;;;4998783;28;20072;-65
2022/02/07 15:16:08;;;;;;;14.95;2.55;;;6.90;99.90;;;;;;4991826;28;20065;-65
2022/02/07 15:18:33;;;;;;;12.30;2.63;;;6.80;99.90;;;;;;4997266;28;20042;-65
2022/02/07 15:21:01;;;;;;;13.65;2.35;;;6.80;99.90;;;;;;5000429;28;20065;-65
2022/02/07 15:23:27;;;;;;;17.90;3.05;;;6.70;99.90;;;;;;4995553;28;20094;-65
2022/02/07 15:25:53;;;;;;;15.82;2.88;;;6.70;99.90;;;;;;4988720;28;20097;-65
2022/02/07 15:28:19;;;;;;;12.95;3.17;;;6.70;99.90;;;;;;4995362;28;20058;-65
2022/02/07 15:30:46;;;;;;;12.00;2.10;;;6.60;99.90;;;;;;4982452;28;20049;-66
2022/02/07 15:33:14;;;;;;;16.00;3.35;;;6.60;99.90;;;;;;4995174;28;20050;-65